sensor_id;sensor_type;location;lat;lon;timestamp;pressure;altitude;pressure_sealevel;temperature;humidity
80644;BME280;70010;60.224;24.712;2024-03-08T00:02:12;102242.93;;;-4.41;51.04
80644;BME280;70010;60.224;24.712;2024-03-08T00:04:37;102242.47;;;-5.14;51.98
80644;BME280;70010;60.224;24.712;2024-03-08T00:07:02;102244.42;;;-3.52;50.03
80644;BME280;70010;60.224;24.712;2024-03-08T00:09:28;102243.05;;;-5.56;52.66
80644;BME280;70010;60.224;24.712;2024-03-08T00:11:53;102239.90;;;-4.59;51.35
80644;BME280;70010;60.224;24.712;2024-03-08T00:14:19;102238.04;;;-3.97;50.42
80644;BME280;70010;60.224;24.712;2024-03-08T00:16:44;102226.32;;;-3.29;48.53
80644;BME280;70010;60.224;24.712;2024-03-08T00:19:10;102231.85;;;-4.84;52.36
80644;BME280;70010;60.224;24.712;2024-03-08T00:21:35;102226.21;;;-3.71;50.84
80644;BME280;70010;60.224;24.712;2024-03-08T00:24:00;102230.41;;;-5.98;53.73
80644;BME280;70010;60.224;24.712;2024-03-08T00:26:25;102229.61;;;-4.50;51.67
80644;BME280;70010;60.224;24.712;2024-03-08T00:28:51;102224.64;;;-3.86;50.73
80644;BME280;70010;60.224;24.712;2024-03-08T00:31:16;102224.03;;;-2.72;48.04
80644;BME280;70010;60.224;24.712;2024-03-08T00:33:42;102230.37;;;-5.18;52.29
80644;BME280;70010;60.224;24.712;2024-03-08T00:36:07;102225.37;;;-6.08;54.29
80644;BME280;70010;60.224;24.712;2024-03-08T00:38:33;102225.98;;;-5.16;53.80
80644;BME280;70010;60.224;24.712;2024-03-08T00:40:58;102227.09;;;-6.96;57.78
80644;BME280;70010;60.224;24.712;2024-03-08T00:43:24;102221.63;;;-6.03;56.23
80644;BME280;70010;60.224;24.712;2024-03-08T00:45:49;102223.59;;;-3.77;51.28
80644;BME280;70010;60.224;24.712;2024-03-08T00:48:15;102220.13;;;-3.77;49.71
80644;BME280;70010;60.224;24.712;2024-03-08T00:50:41;102217.45;;;-2.53;47.74
80644;BME280;70010;60.224;24.712;2024-03-08T00:53:06;102222.92;;;-2.45;47.63
80644;BME280;70010;60.224;24.712;2024-03-08T00:55:32;102234.70;;;-5.02;51.89
80644;BME280;70010;60.224;24.712;2024-03-08T00:57:57;102233.15;;;-4.99;52.44
80644;BME280;70010;60.224;24.712;2024-03-08T01:00:23;102234.27;;;-5.05;51.93
80644;BME280;70010;60.224;24.712;2024-03-08T01:02:48;102234.73;;;-4.79;53.07
80644;BME280;70010;60.224;24.712;2024-03-08T01:05:13;102226.04;;;-3.76;49.95
80644;BME280;70010;60.224;24.712;2024-03-08T01:07:38;102231.67;;;-4.93;52.65
80644;BME280;70010;60.224;24.712;2024-03-08T01:10:05;102224.59;;;-2.50;48.32
80644;BME280;70010;60.224;24.712;2024-03-08T01:12:29;102223.88;;;-3.27;48.73
80644;BME280;70010;60.224;24.712;2024-03-08T01:14:55;102227.86;;;-5.30;52.11
80644;BME280;70010;60.224;24.712;2024-03-08T01:17:20;102225.00;;;-5.24;53.58
80644;BME280;70010;60.224;24.712;2024-03-08T01:19:45;102224.48;;;-5.59;53.94
80644;BME280;70010;60.224;24.712;2024-03-08T01:22:10;102221.16;;;-3.20;49.91
80644;BME280;70010;60.224;24.712;2024-03-08T01:24:36;102223.15;;;-4.31;52.41
80644;BME280;70010;60.224;24.712;2024-03-08T01:27:02;102224.92;;;-6.20;56.04
80644;BME280;70010;60.224;24.712;2024-03-08T01:29:27;102224.85;;;-4.35;51.82
80644;BME280;70010;60.224;24.712;2024-03-08T01:31:53;102229.26;;;-4.61;51.79
80644;BME280;70010;60.224;24.712;2024-03-08T01:34:19;102229.84;;;-5.87;54.62
80644;BME280;70010;60.224;24.712;2024-03-08T01:36:44;102225.76;;;-5.59;54.92
80644;BME280;70010;60.224;24.712;2024-03-08T01:39:09;102233.55;;;-4.13;52.48
80644;BME280;70010;60.224;24.712;2024-03-08T01:41:34;102232.84;;;-5.57;54.15
80644;BME280;70010;60.224;24.712;2024-03-08T01:44:00;102225.87;;;-3.11;49.51
80644;BME280;70010;60.224;24.712;2024-03-08T01:46:26;102225.21;;;-3.63;50.54
80644;BME280;70010;60.224;24.712;2024-03-08T01:48:51;102227.68;;;-2.03;47.26
80644;BME280;70010;60.224;24.712;2024-03-08T01:51:17;102237.90;;;-4.63;50.93
80644;BME280;70010;60.224;24.712;2024-03-08T01:53:43;102230.25;;;-3.59;50.20
80644;BME280;70010;60.224;24.712;2024-03-08T01:56:08;102227.58;;;-3.36;49.43
80644;BME280;70010;60.224;24.712;2024-03-08T01:58:34;102233.83;;;-4.14;51.30
80644;BME280;70010;60.224;24.712;2024-03-08T02:00:59;102223.56;;;-2.19;47.43
80644;BME280;70010;60.224;24.712;2024-03-08T02:03:24;102224.69;;;-3.46;49.17
80644;BME280;70010;60.224;24.712;2024-03-08T02:05:50;102230.15;;;-6.63;56.62
80644;BME280;70010;60.224;24.712;2024-03-08T02:08:16;102228.00;;;-4.62;52.48
80644;BME280;70010;60.224;24.712;2024-03-08T02:10:41;102223.38;;;-4.82;52.86
80644;BME280;70010;60.224;24.712;2024-03-08T02:13:06;102215.14;;;-4.17;51.28
80644;BME280;70010;60.224;24.712;2024-03-08T02:17:58;102207.77;;;-2.26;47.80
80644;BME280;70010;60.224;24.712;2024-03-08T02:20:22;102217.40;;;-5.13;53.35
80644;BME280;70010;60.224;24.712;2024-03-08T02:22:48;102204.45;;;-3.18;49.99
80644;BME280;70010;60.224;24.712;2024-03-08T02:25:14;102208.83;;;-4.91;52.44
80644;BME280;70010;60.224;24.712;2024-03-08T02:27:40;102208.57;;;-4.24;51.58
80644;BME280;70010;60.224;24.712;2024-03-08T02:30:06;102208.92;;;-4.04;51.71
80644;BME280;70010;60.224;24.712;2024-03-08T02:32:30;102204.41;;;-3.02;49.28
80644;BME280;70010;60.224;24.712;2024-03-08T02:34:56;102200.05;;;-2.75;49.03
80644;BME280;70010;60.224;24.712;2024-03-08T02:37:22;102211.23;;;-4.81;53.46
80644;BME280;70010;60.224;24.712;2024-03-08T02:39:48;102208.93;;;-3.79;50.87
80644;BME280;70010;60.224;24.712;2024-03-08T02:42:13;102207.48;;;-4.70;52.77
80644;BME280;70010;60.224;24.712;2024-03-08T02:44:42;102210.70;;;-4.72;53.59
80644;BME280;70010;60.224;24.712;2024-03-08T02:47:04;102209.94;;;-4.26;51.73
80644;BME280;70010;60.224;24.712;2024-03-08T02:49:29;102213.09;;;-5.73;55.48
80644;BME280;70010;60.224;24.712;2024-03-08T02:51:55;102215.20;;;-5.17;55.13
80644;BME280;70010;60.224;24.712;2024-03-08T02:54:20;102204.95;;;-3.75;51.70
80644;BME280;70010;60.224;24.712;2024-03-08T02:56:46;102213.56;;;-3.64;51.50
80644;BME280;70010;60.224;24.712;2024-03-08T02:59:11;102208.52;;;-3.94;52.11
80644;BME280;70010;60.224;24.712;2024-03-08T03:01:36;102217.87;;;-3.99;51.97
80644;BME280;70010;60.224;24.712;2024-03-08T03:04:02;102217.92;;;-4.11;52.53
80644;BME280;70010;60.224;24.712;2024-03-08T03:06:27;102214.36;;;-4.75;53.87
80644;BME280;70010;60.224;24.712;2024-03-08T03:08:52;102209.01;;;-3.07;51.09
80644;BME280;70010;60.224;24.712;2024-03-08T03:11:17;102216.62;;;-5.21;55.24
80644;BME280;70010;60.224;24.712;2024-03-08T03:13:43;102213.14;;;-5.75;56.28
80644;BME280;70010;60.224;24.712;2024-03-08T03:16:08;102215.21;;;-4.03;52.70
80644;BME280;70010;60.224;24.712;2024-03-08T03:18:33;102215.10;;;-4.71;53.38
80644;BME280;70010;60.224;24.712;2024-03-08T03:20:59;102217.83;;;-5.54;55.69
80644;BME280;70010;60.224;24.712;2024-03-08T03:23:25;102215.21;;;-4.41;54.42
80644;BME280;70010;60.224;24.712;2024-03-08T03:25:50;102213.96;;;-3.58;51.92
80644;BME280;70010;60.224;24.712;2024-03-08T03:28:15;102215.32;;;-2.09;48.60
80644;BME280;70010;60.224;24.712;2024-03-08T03:30:41;102211.54;;;-2.95;50.12
80644;BME280;70010;60.224;24.712;2024-03-08T03:33:06;102213.53;;;-4.11;52.48
80644;BME280;70010;60.224;24.712;2024-03-08T03:35:31;102212.41;;;-2.31;48.90
80644;BME280;70010;60.224;24.712;2024-03-08T03:37:56;102216.83;;;-3.77;51.35
80644;BME280;70010;60.224;24.712;2024-03-08T03:40:22;102214.68;;;-2.70;50.12
80644;BME280;70010;60.224;24.712;2024-03-08T03:42:47;102214.90;;;-2.57;49.03
80644;BME280;70010;60.224;24.712;2024-03-08T03:45:13;102218.32;;;-2.26;48.77
80644;BME280;70010;60.224;24.712;2024-03-08T03:47:38;102218.67;;;-2.84;49.16
80644;BME280;70010;60.224;24.712;2024-03-08T03:50:04;102217.34;;;-2.80;49.98
80644;BME280;70010;60.224;24.712;2024-03-08T03:52:28;102228.66;;;-4.64;52.84
80644;BME280;70010;60.224;24.712;2024-03-08T03:54:53;102221.87;;;-3.27;51.52
80644;BME280;70010;60.224;24.712;2024-03-08T03:57:19;102227.39;;;-3.65;52.10
80644;BME280;70010;60.224;24.712;2024-03-08T03:59:44;102222.73;;;-3.09;51.08
80644;BME280;70010;60.224;24.712;2024-03-08T04:02:10;102222.56;;;-3.45;51.39
80644;BME280;70010;60.224;24.712;2024-03-08T04:04:35;102226.09;;;-3.63;52.21
80644;BME280;70010;60.224;24.712;2024-03-08T04:07:01;102221.83;;;-3.31;51.44
80644;BME280;70010;60.224;24.712;2024-03-08T04:09:26;102226.26;;;-2.26;48.96
80644;BME280;70010;60.224;24.712;2024-03-08T04:11:52;102222.51;;;-3.28;50.32
80644;BME280;70010;60.224;24.712;2024-03-08T04:14:17;102224.49;;;-3.05;51.10
80644;BME280;70010;60.224;24.712;2024-03-08T04:16:42;102237.87;;;-4.37;54.41
80644;BME280;70010;60.224;24.712;2024-03-08T04:19:08;102227.76;;;-3.32;51.29
80644;BME280;70010;60.224;24.712;2024-03-08T04:21:33;102228.88;;;-3.15;50.93
80644;BME280;70010;60.224;24.712;2024-03-08T04:23:59;102245.45;;;-5.82;57.26
80644;BME280;70010;60.224;24.712;2024-03-08T04:26:24;102242.02;;;-4.34;53.93
80644;BME280;70010;60.224;24.712;2024-03-08T04:28:50;102247.66;;;-4.77;55.54
80644;BME280;70010;60.224;24.712;2024-03-08T04:31:15;102245.62;;;-4.43;53.72
80644;BME280;70010;60.224;24.712;2024-03-08T04:33:40;102248.15;;;-4.54;53.82
80644;BME280;70010;60.224;24.712;2024-03-08T04:36:06;102244.10;;;-3.40;52.41
80644;BME280;70010;60.224;24.712;2024-03-08T04:38:31;102246.06;;;-2.39;50.23
80644;BME280;70010;60.224;24.712;2024-03-08T04:40:57;102244.73;;;-2.37;50.15
80644;BME280;70010;60.224;24.712;2024-03-08T04:43:23;102246.55;;;-1.60;47.94
80644;BME280;70010;60.224;24.712;2024-03-08T04:45:47;102248.55;;;-1.96;48.27
80644;BME280;70010;60.224;24.712;2024-03-08T04:48:13;102252.75;;;-4.09;51.95
80644;BME280;70010;60.224;24.712;2024-03-08T04:50:38;102245.69;;;-2.61;50.46
80644;BME280;70010;60.224;24.712;2024-03-08T04:53:04;102249.78;;;-2.39;49.42
80644;BME280;70010;60.224;24.712;2024-03-08T04:55:29;102251.91;;;-3.44;51.50
80644;BME280;70010;60.224;24.712;2024-03-08T04:57:55;102253.71;;;-5.32;55.83
80644;BME280;70010;60.224;24.712;2024-03-08T05:00:21;102246.63;;;-3.56;52.80
80644;BME280;70010;60.224;24.712;2024-03-08T05:02:46;102247.33;;;-1.87;49.09
80644;BME280;70010;60.224;24.712;2024-03-08T05:05:11;102253.43;;;-2.76;49.42
80644;BME280;70010;60.224;24.712;2024-03-08T05:07:37;102252.94;;;-3.16;50.55
80644;BME280;70010;60.224;24.712;2024-03-08T05:10:02;102252.39;;;-3.12;50.70
80644;BME280;70010;60.224;24.712;2024-03-08T05:12:28;102259.69;;;-3.24;51.72
80644;BME280;70010;60.224;24.712;2024-03-08T05:14:53;102257.25;;;-3.20;50.33
80644;BME280;70010;60.224;24.712;2024-03-08T05:17:19;102254.50;;;-1.84;48.36
80644;BME280;70010;60.224;24.712;2024-03-08T05:19:44;102261.18;;;-3.57;50.01
80644;BME280;70010;60.224;24.712;2024-03-08T05:22:09;102255.82;;;-2.98;49.42
80644;BME280;70010;60.224;24.712;2024-03-08T05:24:35;102258.17;;;-1.62;47.44
80644;BME280;70010;60.224;24.712;2024-03-08T05:27:00;102264.34;;;-3.96;52.05
80644;BME280;70010;60.224;24.712;2024-03-08T05:29:25;102260.52;;;-2.70;49.70
80644;BME280;70010;60.224;24.712;2024-03-08T05:31:51;102262.94;;;-2.61;49.65
80644;BME280;70010;60.224;24.712;2024-03-08T05:34:16;102264.75;;;-2.47;49.85
80644;BME280;70010;60.224;24.712;2024-03-08T05:36:41;102267.89;;;-1.73;47.40
80644;BME280;70010;60.224;24.712;2024-03-08T05:39:06;102274.33;;;-3.19;49.37
80644;BME280;70010;60.224;24.712;2024-03-08T05:41:31;102280.91;;;-4.24;51.55
80644;BME280;70010;60.224;24.712;2024-03-08T05:43:57;102282.13;;;-5.54;54.51
80644;BME280;70010;60.224;24.712;2024-03-08T05:46:22;102277.64;;;-2.66;49.45
80644;BME280;70010;60.224;24.712;2024-03-08T05:48:48;102275.05;;;-3.03;49.49
80644;BME280;70010;60.224;24.712;2024-03-08T05:51:13;102279.12;;;-1.80;47.73
80644;BME280;70010;60.224;24.712;2024-03-08T05:53:39;102280.73;;;-2.41;48.56
80644;BME280;70010;60.224;24.712;2024-03-08T05:56:04;102281.44;;;-2.03;47.51
80644;BME280;70010;60.224;24.712;2024-03-08T05:58:29;102279.86;;;-2.14;47.06
80644;BME280;70010;60.224;24.712;2024-03-08T06:00:55;102282.36;;;-2.13;47.62
80644;BME280;70010;60.224;24.712;2024-03-08T06:03:20;102285.94;;;-2.42;48.08
80644;BME280;70010;60.224;24.712;2024-03-08T06:05:46;102285.55;;;-2.74;48.79
80644;BME280;70010;60.224;24.712;2024-03-08T06:08:11;102298.39;;;-4.16;51.15
80644;BME280;70010;60.224;24.712;2024-03-08T06:10:36;102297.79;;;-4.00;50.51
80644;BME280;70010;60.224;24.712;2024-03-08T06:13:02;102297.50;;;-3.79;51.11
80644;BME280;70010;60.224;24.712;2024-03-08T06:15:27;102293.38;;;-2.92;49.57
80644;BME280;70010;60.224;24.712;2024-03-08T06:17:52;102293.47;;;-5.02;53.47
80644;BME280;70010;60.224;24.712;2024-03-08T06:20:18;102295.09;;;-2.37;48.52
80644;BME280;70010;60.224;24.712;2024-03-08T06:22:43;102295.73;;;-2.55;49.79
80644;BME280;70010;60.224;24.712;2024-03-08T06:25:09;102298.24;;;-2.24;48.42
80644;BME280;70010;60.224;24.712;2024-03-08T06:27:34;102295.66;;;-2.14;47.79
80644;BME280;70010;60.224;24.712;2024-03-08T06:29:59;102298.09;;;-2.20;48.61
80644;BME280;70010;60.224;24.712;2024-03-08T06:32:25;102297.30;;;-2.54;48.97
80644;BME280;70010;60.224;24.712;2024-03-08T06:34:50;102297.68;;;-2.61;49.22
80644;BME280;70010;60.224;24.712;2024-03-08T06:37:16;102299.66;;;-2.36;48.63
80644;BME280;70010;60.224;24.712;2024-03-08T06:39:41;102306.62;;;-4.49;52.24
80644;BME280;70010;60.224;24.712;2024-03-08T06:42:07;102307.79;;;-4.83;53.80
80644;BME280;70010;60.224;24.712;2024-03-08T06:44:32;102305.78;;;-3.99;53.28
80644;BME280;70010;60.224;24.712;2024-03-08T06:46:58;102306.95;;;-5.23;54.60
80644;BME280;70010;60.224;24.712;2024-03-08T06:49:23;102303.98;;;-3.16;50.59
80644;BME280;70010;60.224;24.712;2024-03-08T06:51:48;102302.26;;;-2.85;49.59
80644;BME280;70010;60.224;24.712;2024-03-08T06:54:14;102300.68;;;-2.77;49.21
80644;BME280;70010;60.224;24.712;2024-03-08T06:56:40;102307.60;;;-2.23;48.53
80644;BME280;70010;60.224;24.712;2024-03-08T06:59:05;102306.49;;;-2.85;48.50
80644;BME280;70010;60.224;24.712;2024-03-08T07:01:30;102307.40;;;-1.46;46.38
80644;BME280;70010;60.224;24.712;2024-03-08T07:03:55;102307.00;;;-1.97;47.66
80644;BME280;70010;60.224;24.712;2024-03-08T07:06:21;102310.65;;;-2.52;49.92
80644;BME280;70010;60.224;24.712;2024-03-08T07:08:46;102317.52;;;-3.73;53.14
80644;BME280;70010;60.224;24.712;2024-03-08T07:11:11;102315.62;;;-4.24;53.26
80644;BME280;70010;60.224;24.712;2024-03-08T07:13:37;102318.42;;;-4.27;53.64
80644;BME280;70010;60.224;24.712;2024-03-08T07:16:02;102319.15;;;-3.97;52.57
80644;BME280;70010;60.224;24.712;2024-03-08T07:18:27;102312.83;;;-1.41;47.17
80644;BME280;70010;60.224;24.712;2024-03-08T07:20:53;102312.62;;;-2.60;49.39
80644;BME280;70010;60.224;24.712;2024-03-08T07:23:18;102321.02;;;-3.71;51.96
80644;BME280;70010;60.224;24.712;2024-03-08T07:25:44;102308.94;;;-1.45;47.64
80644;BME280;70010;60.224;24.712;2024-03-08T07:28:10;102310.24;;;-1.58;46.86
80644;BME280;70010;60.224;24.712;2024-03-08T07:30:35;102318.85;;;-4.80;52.05
80644;BME280;70010;60.224;24.712;2024-03-08T07:33:01;102315.31;;;-2.01;48.76
80644;BME280;70010;60.224;24.712;2024-03-08T07:35:26;102312.33;;;-1.55;47.16
80644;BME280;70010;60.224;24.712;2024-03-08T07:37:51;102316.56;;;-2.51;48.00
80644;BME280;70010;60.224;24.712;2024-03-08T07:40:17;102317.78;;;-1.61;46.97
80644;BME280;70010;60.224;24.712;2024-03-08T07:42:42;102321.75;;;-4.71;53.62
80644;BME280;70010;60.224;24.712;2024-03-08T07:45:09;102327.10;;;-6.70;59.30
80644;BME280;70010;60.224;24.712;2024-03-08T07:47:33;102321.55;;;-2.79;51.48
80644;BME280;70010;60.224;24.712;2024-03-08T07:49:58;102325.56;;;-4.92;54.69
80644;BME280;70010;60.224;24.712;2024-03-08T07:52:24;102326.71;;;-3.97;51.35
80644;BME280;70010;60.224;24.712;2024-03-08T07:54:49;102318.16;;;-2.84;50.46
80644;BME280;70010;60.224;24.712;2024-03-08T07:57:14;102325.02;;;-4.03;52.14
80644;BME280;70010;60.224;24.712;2024-03-08T07:59:39;102316.93;;;-1.62;47.90
80644;BME280;70010;60.224;24.712;2024-03-08T08:02:05;102318.76;;;-0.82;45.69
80644;BME280;70010;60.224;24.712;2024-03-08T08:04:31;102318.82;;;-1.14;47.28
80644;BME280;70010;60.224;24.712;2024-03-08T08:06:56;102319.90;;;-2.45;48.35
80644;BME280;70010;60.224;24.712;2024-03-08T08:09:21;102325.04;;;-2.50;48.80
80644;BME280;70010;60.224;24.712;2024-03-08T08:11:46;102325.86;;;-2.90;49.40
80644;BME280;70010;60.224;24.712;2024-03-08T08:14:12;102324.72;;;-2.79;48.99
80644;BME280;70010;60.224;24.712;2024-03-08T08:16:37;102327.50;;;-4.58;52.76
80644;BME280;70010;60.224;24.712;2024-03-08T08:19:02;102324.72;;;-2.60;50.48
80644;BME280;70010;60.224;24.712;2024-03-08T08:21:27;102330.03;;;-4.86;54.75
80644;BME280;70010;60.224;24.712;2024-03-08T08:23:53;102330.41;;;-4.79;55.76
80644;BME280;70010;60.224;24.712;2024-03-08T08:26:19;102331.19;;;-3.54;52.89
80644;BME280;70010;60.224;24.712;2024-03-08T08:28:44;102326.58;;;-3.14;50.65
80644;BME280;70010;60.224;24.712;2024-03-08T08:31:10;102325.25;;;-2.13;49.37
80644;BME280;70010;60.224;24.712;2024-03-08T08:33:35;102326.43;;;-3.19;50.92
80644;BME280;70010;60.224;24.712;2024-03-08T08:36:00;102327.67;;;-4.60;53.59
80644;BME280;70010;60.224;24.712;2024-03-08T08:38:26;102323.67;;;-2.51;50.55
80644;BME280;70010;60.224;24.712;2024-03-08T08:40:51;102324.20;;;-3.15;50.88
80644;BME280;70010;60.224;24.712;2024-03-08T08:43:16;102330.29;;;-4.44;53.83
80644;BME280;70010;60.224;24.712;2024-03-08T08:45:42;102330.12;;;-3.54;52.87
80644;BME280;70010;60.224;24.712;2024-03-08T08:48:07;102326.50;;;-3.00;51.54
80644;BME280;70010;60.224;24.712;2024-03-08T08:50:32;102324.43;;;-2.94;50.49
80644;BME280;70010;60.224;24.712;2024-03-08T08:52:58;102323.15;;;-1.68;47.88
80644;BME280;70010;60.224;24.712;2024-03-08T08:55:23;102322.92;;;-1.56;48.31
80644;BME280;70010;60.224;24.712;2024-03-08T08:57:48;102324.82;;;-3.21;51.04
80644;BME280;70010;60.224;24.712;2024-03-08T09:00:14;102333.80;;;-3.62;52.22
80644;BME280;70010;60.224;24.712;2024-03-08T09:02:39;102327.48;;;-2.37;49.39
80644;BME280;70010;60.224;24.712;2024-03-08T09:05:05;102330.85;;;-0.88;47.19
80644;BME280;70010;60.224;24.712;2024-03-08T09:07:30;102336.65;;;-2.40;49.61
80644;BME280;70010;60.224;24.712;2024-03-08T09:09:55;102338.76;;;-2.14;48.86
80644;BME280;70010;60.224;24.712;2024-03-08T09:12:21;102344.19;;;-2.52;49.42
80644;BME280;70010;60.224;24.712;2024-03-08T09:14:46;102343.87;;;-1.40;47.84
80644;BME280;70010;60.224;24.712;2024-03-08T09:17:12;102346.43;;;-0.27;46.48
80644;BME280;70010;60.224;24.712;2024-03-08T09:19:37;102348.37;;;-2.46;48.89
80644;BME280;70010;60.224;24.712;2024-03-08T09:22:02;102361.67;;;-4.61;54.82
80644;BME280;70010;60.224;24.712;2024-03-08T09:24:27;102354.65;;;-1.97;50.20
80644;BME280;70010;60.224;24.712;2024-03-08T09:26:53;102355.52;;;-1.34;48.93
80644;BME280;70010;60.224;24.712;2024-03-08T09:29:18;102354.62;;;-1.86;50.01
80644;BME280;70010;60.224;24.712;2024-03-08T09:31:43;102357.46;;;-1.83;49.41
80644;BME280;70010;60.224;24.712;2024-03-08T09:34:08;102357.39;;;-1.10;48.58
80644;BME280;70010;60.224;24.712;2024-03-08T09:36:34;102362.12;;;-2.98;50.49
80644;BME280;70010;60.224;24.712;2024-03-08T09:38:59;102365.03;;;-0.78;47.65
80644;BME280;70010;60.224;24.712;2024-03-08T09:41:25;102373.75;;;-4.06;52.28
80644;BME280;70010;60.224;24.712;2024-03-08T09:43:51;102373.47;;;-3.88;54.15
80644;BME280;70010;60.224;24.712;2024-03-08T09:46:16;102372.32;;;-3.70;53.98
80644;BME280;70010;60.224;24.712;2024-03-08T09:48:41;102360.39;;;-1.25;49.16
80644;BME280;70010;60.224;24.712;2024-03-08T09:51:06;102360.53;;;-1.39;47.74
80644;BME280;70010;60.224;24.712;2024-03-08T09:53:31;102357.56;;;-0.49;46.41
80644;BME280;70010;60.224;24.712;2024-03-08T09:55:57;102354.74;;;-0.55;46.64
80644;BME280;70010;60.224;24.712;2024-03-08T09:58:22;102352.86;;;-0.13;45.47
80644;BME280;70010;60.224;24.712;2024-03-08T10:00:47;102352.39;;;0.08;44.89
80644;BME280;70010;60.224;24.712;2024-03-08T10:03:13;102343.47;;;-0.38;46.04
80644;BME280;70010;60.224;24.712;2024-03-08T10:05:38;102349.18;;;-0.83;46.30
80644;BME280;70010;60.224;24.712;2024-03-08T10:08:04;102345.64;;;-1.68;48.26
80644;BME280;70010;60.224;24.712;2024-03-08T10:10:28;102343.93;;;-0.85;46.94
80644;BME280;70010;60.224;24.712;2024-03-08T10:12:53;102342.69;;;-0.97;46.90
80644;BME280;70010;60.224;24.712;2024-03-08T10:15:19;102342.21;;;-0.07;46.19
80644;BME280;70010;60.224;24.712;2024-03-08T10:17:44;102343.15;;;-0.30;45.64
80644;BME280;70010;60.224;24.712;2024-03-08T10:20:14;102344.13;;;-0.10;45.82
80644;BME280;70010;60.224;24.712;2024-03-08T10:22:35;102350.85;;;-2.20;49.70
80644;BME280;70010;60.224;24.712;2024-03-08T10:25:00;102352.19;;;-1.49;48.85
80644;BME280;70010;60.224;24.712;2024-03-08T10:27:25;102350.37;;;-0.96;47.21
80644;BME280;70010;60.224;24.712;2024-03-08T10:29:51;102342.91;;;-0.14;45.75
80644;BME280;70010;60.224;24.712;2024-03-08T10:32:15;102343.20;;;-1.11;47.93
80644;BME280;70010;60.224;24.712;2024-03-08T10:34:41;102342.76;;;-1.22;47.72
80644;BME280;70010;60.224;24.712;2024-03-08T10:37:07;102339.99;;;0.61;44.70
80644;BME280;70010;60.224;24.712;2024-03-08T10:39:35;102340.48;;;-1.20;47.42
80644;BME280;70010;60.224;24.712;2024-03-08T10:41:58;102337.21;;;-0.38;46.32
80644;BME280;70010;60.224;24.712;2024-03-08T10:44:35;102342.54;;;0.39;44.77
80644;BME280;70010;60.224;24.712;2024-03-08T10:46:59;102344.85;;;-0.89;46.42
80644;BME280;70010;60.224;24.712;2024-03-08T10:49:16;102344.49;;;-0.51;46.31
80644;BME280;70010;60.224;24.712;2024-03-08T10:51:39;102347.66;;;-2.36;50.30
80644;BME280;70010;60.224;24.712;2024-03-08T10:54:04;102349.49;;;-2.48;50.71
80644;BME280;70010;60.224;24.712;2024-03-08T10:56:29;102349.84;;;-3.35;52.94
80644;BME280;70010;60.224;24.712;2024-03-08T10:58:54;102343.16;;;-2.32;51.46
80644;BME280;70010;60.224;24.712;2024-03-08T11:01:19;102339.94;;;-1.62;50.35
80644;BME280;70010;60.224;24.712;2024-03-08T11:03:45;102341.95;;;-2.51;51.99
80644;BME280;70010;60.224;24.712;2024-03-08T11:06:14;102341.63;;;-0.57;47.88
80644;BME280;70010;60.224;24.712;2024-03-08T11:08:36;102346.23;;;-1.16;48.40
80644;BME280;70010;60.224;24.712;2024-03-08T11:11:01;102348.77;;;-1.56;48.44
80644;BME280;70010;60.224;24.712;2024-03-08T11:13:34;102347.61;;;0.57;44.35
80644;BME280;70010;60.224;24.712;2024-03-08T11:15:51;102348.48;;;0.76;43.89
80644;BME280;70010;60.224;24.712;2024-03-08T11:18:17;102351.03;;;-0.06;45.98
80644;BME280;70010;60.224;24.712;2024-03-08T11:20:42;102354.05;;;-2.12;49.41
80644;BME280;70010;60.224;24.712;2024-03-08T11:23:09;102352.43;;;-0.55;47.13
80644;BME280;70010;60.224;24.712;2024-03-08T11:25:34;102358.83;;;-2.32;49.20
80644;BME280;70010;60.224;24.712;2024-03-08T11:30:23;102358.10;;;-0.32;46.88
80644;BME280;70010;60.224;24.712;2024-03-08T11:32:50;102358.18;;;0.49;45.71
80644;BME280;70010;60.224;24.712;2024-03-08T11:35:19;102357.15;;;-1.47;47.77
80644;BME280;70010;60.224;24.712;2024-03-08T11:37:39;102363.60;;;-3.77;52.88
80644;BME280;70010;60.224;24.712;2024-03-08T11:40:12;102355.71;;;-0.85;48.29
80644;BME280;70010;60.224;24.712;2024-03-08T11:42:30;102351.66;;;0.57;45.00
80644;BME280;70010;60.224;24.712;2024-03-08T11:44:55;102353.40;;;-0.04;45.81
80644;BME280;70010;60.224;24.712;2024-03-08T11:47:21;102358.93;;;-2.55;50.15
80644;BME280;70010;60.224;24.712;2024-03-08T11:49:46;102361.83;;;-3.59;53.50
80644;BME280;70010;60.224;24.712;2024-03-08T11:52:12;102355.51;;;-1.87;47.88
80644;BME280;70010;60.224;24.712;2024-03-08T11:54:37;102353.11;;;-2.01;48.24
80644;BME280;70010;60.224;24.712;2024-03-08T11:57:02;102356.09;;;-0.77;47.30
80644;BME280;70010;60.224;24.712;2024-03-08T11:59:28;102353.24;;;-0.29;45.86
80644;BME280;70010;60.224;24.712;2024-03-08T12:01:59;102359.75;;;0.45;44.34
80644;BME280;70010;60.224;24.712;2024-03-08T12:04:18;102357.02;;;-0.44;46.45
80644;BME280;70010;60.224;24.712;2024-03-08T12:06:43;102359.58;;;-0.04;45.47
80644;BME280;70010;60.224;24.712;2024-03-08T12:09:09;102356.39;;;-0.09;45.44
80644;BME280;70010;60.224;24.712;2024-03-08T12:11:34;102360.92;;;-2.34;47.93
80644;BME280;70010;60.224;24.712;2024-03-08T12:14:00;102362.56;;;-1.16;47.59
80644;BME280;70010;60.224;24.712;2024-03-08T12:16:25;102370.18;;;-3.51;51.51
80644;BME280;70010;60.224;24.712;2024-03-08T12:18:52;102363.26;;;-1.96;49.84
80644;BME280;70010;60.224;24.712;2024-03-08T12:21:16;102362.22;;;-1.23;47.78
80644;BME280;70010;60.224;24.712;2024-03-08T12:23:41;102358.11;;;-0.35;46.34
80644;BME280;70010;60.224;24.712;2024-03-08T12:26:11;102359.79;;;0.30;44.86
80644;BME280;70010;60.224;24.712;2024-03-08T12:28:32;102360.39;;;-0.77;47.30
80644;BME280;70010;60.224;24.712;2024-03-08T12:30:57;102363.43;;;0.90;44.23
80644;BME280;70010;60.224;24.712;2024-03-08T12:33:23;102360.96;;;0.91;43.90
80644;BME280;70010;60.224;24.712;2024-03-08T12:35:51;102360.29;;;0.90;43.87